sensor_id;sensor_type;location;lat;lon;timestamp;temperature;humidity
14771;DHT22;7477;45.222;5.688;2022-09-23T00:00:16;13.00;99.90
14771;DHT22;7477;45.222;5.688;2022-09-23T00:03:37;13.00;99.90
14771;DHT22;7477;45.222;5.688;2022-09-23T00:06:57;13.00;99.90
14771;DHT22;7477;45.222;5.688;2022-09-23T00:10:16;12.90;99.90
14771;DHT22;7477;45.222;5.688;2022-09-23T00:13:38;12.90;99.90
14771;DHT22;7477;45.222;5.688;2022-09-23T00:16:58;12.80;99.90
14771;DHT22;7477;45.222;5.688;2022-09-23T00:20:17;12.80;99.90
14771;DHT22;7477;45.222;5.688;2022-09-23T00:23:37;12.80;99.90
14771;DHT22;7477;45.222;5.688;2022-09-23T00:26:59;12.70;99.90
14771;DHT22;7477;45.222;5.688;2022-09-23T00:30:18;12.70;99.90
14771;DHT22;7477;45.222;5.688;2022-09-23T00:33:38;12.70;99.90
14771;DHT22;7477;45.222;5.688;2022-09-23T00:36:58;12.80;99.90
14771;DHT22;7477;45.222;5.688;2022-09-23T00:40:17;12.90;99.90
14771;DHT22;7477;45.222;5.688;2022-09-23T00:43:51;12.90;99.90
14771;DHT22;7477;45.222;5.688;2022-09-23T00:50:47;12.90;99.90
14771;DHT22;7477;45.222;5.688;2022-09-23T00:54:07;12.90;99.90
14771;DHT22;7477;45.222;5.688;2022-09-23T00:57:27;12.90;99.90
14771;DHT22;7477;45.222;5.688;2022-09-23T01:00:47;12.90;99.90
14771;DHT22;7477;45.222;5.688;2022-09-23T01:04:07;13.00;99.90
14771;DHT22;7477;45.222;5.688;2022-09-23T01:07:27;12.90;99.90
14771;DHT22;7477;45.222;5.688;2022-09-23T01:14:51;12.80;99.90
14771;DHT22;7477;45.222;5.688;2022-09-23T01:18:39;12.80;99.90
14771;DHT22;7477;45.222;5.688;2022-09-23T01:33:09;12.70;99.90
14771;DHT22;7477;45.222;5.688;2022-09-23T01:36:39;12.80;99.90
14771;DHT22;7477;45.222;5.688;2022-09-23T01:43:45;12.70;99.90
14771;DHT22;7477;45.222;5.688;2022-09-23T01:47:11;12.70;99.90
14771;DHT22;7477;45.222;5.688;2022-09-23T01:50:35;12.70;99.90
14771;DHT22;7477;45.222;5.688;2022-09-23T01:54:29;12.60;99.90
14771;DHT22;7477;45.222;5.688;2022-09-23T01:58:01;12.50;99.90
14771;DHT22;7477;45.222;5.688;2022-09-23T02:01:39;12.40;99.90
14771;DHT22;7477;45.222;5.688;2022-09-23T02:05:06;12.40;99.90
14771;DHT22;7477;45.222;5.688;2022-09-23T02:08:31;12.30;99.90
14771;DHT22;7477;45.222;5.688;2022-09-23T02:11:58;12.30;99.90
14771;DHT22;7477;45.222;5.688;2022-09-23T02:15:25;12.20;99.90
14771;DHT22;7477;45.222;5.688;2022-09-23T02:22:20;12.10;99.90
14771;DHT22;7477;45.222;5.688;2022-09-23T02:26:22;12.10;99.90
14771;DHT22;7477;45.222;5.688;2022-09-23T02:29:45;12.10;99.90
14771;DHT22;7477;45.222;5.688;2022-09-23T02:33:21;12.10;99.90
14771;DHT22;7477;45.222;5.688;2022-09-23T02:36:50;12.10;99.90
14771;DHT22;7477;45.222;5.688;2022-09-23T02:46:59;12.00;99.90
14771;DHT22;7477;45.222;5.688;2022-09-23T02:50:19;12.00;99.90
14771;DHT22;7477;45.222;5.688;2022-09-23T02:53:38;12.00;99.90
14771;DHT22;7477;45.222;5.688;2022-09-23T02:57:04;12.00;99.90
14771;DHT22;7477;45.222;5.688;2022-09-23T03:00:28;12.00;99.90
14771;DHT22;7477;45.222;5.688;2022-09-23T03:07:32;12.00;99.90
14771;DHT22;7477;45.222;5.688;2022-09-23T03:11:03;12.00;99.90
14771;DHT22;7477;45.222;5.688;2022-09-23T03:15:10;12.00;99.90
14771;DHT22;7477;45.222;5.688;2022-09-23T03:25:22;11.80;99.90
14771;DHT22;7477;45.222;5.688;2022-09-23T03:28:44;11.80;99.90
14771;DHT22;7477;45.222;5.688;2022-09-23T03:32:04;11.70;99.90
14771;DHT22;7477;45.222;5.688;2022-09-23T03:35:29;11.70;99.90
14771;DHT22;7477;45.222;5.688;2022-09-23T03:38:56;11.80;99.90
14771;DHT22;7477;45.222;5.688;2022-09-23T03:42:20;11.80;99.90
14771;DHT22;7477;45.222;5.688;2022-09-23T03:45:40;11.80;99.90
14771;DHT22;7477;45.222;5.688;2022-09-23T03:49:17;11.90;99.90
14771;DHT22;7477;45.222;5.688;2022-09-23T03:52:38;11.90;99.90
14771;DHT22;7477;45.222;5.688;2022-09-23T03:55:58;12.00;99.90
14771;DHT22;7477;45.222;5.688;2022-09-23T03:59:17;11.90;99.90
14771;DHT22;7477;45.222;5.688;2022-09-23T04:02:37;11.90;99.90
14771;DHT22;7477;45.222;5.688;2022-09-23T04:05:56;11.80;99.90
14771;DHT22;7477;45.222;5.688;2022-09-23T04:09:15;11.80;99.90
14771;DHT22;7477;45.222;5.688;2022-09-23T04:12:35;11.70;99.90
14771;DHT22;7477;45.222;5.688;2022-09-23T04:15:55;11.70;99.90
14771;DHT22;7477;45.222;5.688;2022-09-23T04:19:15;11.70;99.90
14771;DHT22;7477;45.222;5.688;2022-09-23T04:22:34;11.70;99.90
14771;DHT22;7477;45.222;5.688;2022-09-23T04:25:56;11.70;99.90
14771;DHT22;7477;45.222;5.688;2022-09-23T04:29:16;11.70;99.90
14771;DHT22;7477;45.222;5.688;2022-09-23T04:32:35;11.70;99.90
14771;DHT22;7477;45.222;5.688;2022-09-23T04:35:55;11.70;99.90
14771;DHT22;7477;45.222;5.688;2022-09-23T04:39:15;11.70;99.90
14771;DHT22;7477;45.222;5.688;2022-09-23T04:42:34;11.60;99.90
14771;DHT22;7477;45.222;5.688;2022-09-23T04:46:00;11.60;99.90
14771;DHT22;7477;45.222;5.688;2022-09-23T04:49:20;11.60;99.90
14771;DHT22;7477;45.222;5.688;2022-09-23T04:52:39;11.50;99.90
14771;DHT22;7477;45.222;5.688;2022-09-23T04:56:03;11.50;99.90
14771;DHT22;7477;45.222;5.688;2022-09-23T04:59:23;11.50;99.90
14771;DHT22;7477;45.222;5.688;2022-09-23T05:02:44;11.50;99.90
14771;DHT22;7477;45.222;5.688;2022-09-23T05:06:03;11.40;99.90
14771;DHT22;7477;45.222;5.688;2022-09-23T05:09:23;11.40;99.90
14771;DHT22;7477;45.222;5.688;2022-09-23T05:12:42;11.40;99.90
14771;DHT22;7477;45.222;5.688;2022-09-23T05:16:07;11.40;99.90
14771;DHT22;7477;45.222;5.688;2022-09-23T05:19:27;11.40;99.90
14771;DHT22;7477;45.222;5.688;2022-09-23T05:22:46;11.50;99.90
14771;DHT22;7477;45.222;5.688;2022-09-23T05:26:08;11.50;99.90
14771;DHT22;7477;45.222;5.688;2022-09-23T05:29:28;11.50;99.90
14771;DHT22;7477;45.222;5.688;2022-09-23T05:32:47;11.50;99.90
14771;DHT22;7477;45.222;5.688;2022-09-23T05:36:06;11.50;99.90
14771;DHT22;7477;45.222;5.688;2022-09-23T05:39:26;11.60;99.90
14771;DHT22;7477;45.222;5.688;2022-09-23T05:42:45;11.80;99.90
14771;DHT22;7477;45.222;5.688;2022-09-23T05:46:11;11.90;99.90
14771;DHT22;7477;45.222;5.688;2022-09-23T05:49:31;11.90;99.90
14771;DHT22;7477;45.222;5.688;2022-09-23T05:52:50;11.80;99.90
14771;DHT22;7477;45.222;5.688;2022-09-23T05:56:11;11.90;99.90
14771;DHT22;7477;45.222;5.688;2022-09-23T05:59:31;11.80;99.90
14771;DHT22;7477;45.222;5.688;2022-09-23T06:02:50;11.80;99.90
14771;DHT22;7477;45.222;5.688;2022-09-23T06:06:11;11.90;99.90
14771;DHT22;7477;45.222;5.688;2022-09-23T06:09:32;11.90;99.90
14771;DHT22;7477;45.222;5.688;2022-09-23T06:12:51;11.80;99.90
14771;DHT22;7477;45.222;5.688;2022-09-23T06:16:13;11.90;99.90
14771;DHT22;7477;45.222;5.688;2022-09-23T06:19:32;11.90;99.90
14771;DHT22;7477;45.222;5.688;2022-09-23T06:22:51;11.90;99.90
14771;DHT22;7477;45.222;5.688;2022-09-23T06:26:15;11.90;99.90
14771;DHT22;7477;45.222;5.688;2022-09-23T06:29:35;11.90;99.90
14771;DHT22;7477;45.222;5.688;2022-09-23T06:32:56;12.00;99.90
14771;DHT22;7477;45.222;5.688;2022-09-23T06:36:16;12.00;99.90
14771;DHT22;7477;45.222;5.688;2022-09-23T06:39:35;11.90;99.90
14771;DHT22;7477;45.222;5.688;2022-09-23T06:42:58;11.90;99.90
14771;DHT22;7477;45.222;5.688;2022-09-23T06:46:18;12.00;99.90
14771;DHT22;7477;45.222;5.688;2022-09-23T06:49:38;12.00;99.90
14771;DHT22;7477;45.222;5.688;2022-09-23T06:52:57;12.00;99.90
14771;DHT22;7477;45.222;5.688;2022-09-23T06:56:17;12.10;99.90
14771;DHT22;7477;45.222;5.688;2022-09-23T06:59:38;12.20;99.90
14771;DHT22;7477;45.222;5.688;2022-09-23T07:02:57;12.20;99.90
14771;DHT22;7477;45.222;5.688;2022-09-23T07:06:16;12.90;99.90
14771;DHT22;7477;45.222;5.688;2022-09-23T07:09:36;12.70;99.90
14771;DHT22;7477;45.222;5.688;2022-09-23T07:13:00;12.70;99.90
14771;DHT22;7477;45.222;5.688;2022-09-23T07:16:20;12.50;99.90
14771;DHT22;7477;45.222;5.688;2022-09-23T07:19:40;12.40;99.90
14771;DHT22;7477;45.222;5.688;2022-09-23T07:22:59;12.40;99.90
14771;DHT22;7477;45.222;5.688;2022-09-23T07:26:20;12.40;99.90
14771;DHT22;7477;45.222;5.688;2022-09-23T07:29:44;12.50;99.90
14771;DHT22;7477;45.222;5.688;2022-09-23T07:33:06;12.50;99.90
14771;DHT22;7477;45.222;5.688;2022-09-23T07:36:26;12.60;99.90
14771;DHT22;7477;45.222;5.688;2022-09-23T07:39:45;12.70;99.90
14771;DHT22;7477;45.222;5.688;2022-09-23T07:43:05;12.80;99.90
14771;DHT22;7477;45.222;5.688;2022-09-23T07:46:30;13.20;99.90
14771;DHT22;7477;45.222;5.688;2022-09-23T07:49:49;13.40;99.90
14771;DHT22;7477;45.222;5.688;2022-09-23T07:53:08;13.20;99.90
14771;DHT22;7477;45.222;5.688;2022-09-23T07:56:29;13.10;99.90
14771;DHT22;7477;45.222;5.688;2022-09-23T07:59:48;13.10;99.90
14771;DHT22;7477;45.222;5.688;2022-09-23T08:03:07;13.20;99.90
14771;DHT22;7477;45.222;5.688;2022-09-23T08:06:28;13.20;99.90
14771;DHT22;7477;45.222;5.688;2022-09-23T08:09:47;13.30;99.90
14771;DHT22;7477;45.222;5.688;2022-09-23T08:13:06;13.40;99.90
14771;DHT22;7477;45.222;5.688;2022-09-23T08:16:26;13.50;99.90
14771;DHT22;7477;45.222;5.688;2022-09-23T08:19:45;13.50;99.90
14771;DHT22;7477;45.222;5.688;2022-09-23T08:23:04;13.60;99.90
14771;DHT22;7477;45.222;5.688;2022-09-23T08:26:24;13.60;99.90
14771;DHT22;7477;45.222;5.688;2022-09-23T08:29:44;13.70;99.90
14771;DHT22;7477;45.222;5.688;2022-09-23T08:33:03;13.70;99.90
14771;DHT22;7477;45.222;5.688;2022-09-23T08:36:24;14.10;99.90
14771;DHT22;7477;45.222;5.688;2022-09-23T08:39:43;15.20;99.90
14771;DHT22;7477;45.222;5.688;2022-09-23T08:43:05;16.60;99.90
14771;DHT22;7477;45.222;5.688;2022-09-23T08:46:29;16.60;99.90
14771;DHT22;7477;45.222;5.688;2022-09-23T08:50:04;17.00;99.90
14771;DHT22;7477;45.222;5.688;2022-09-23T08:53:33;17.10;99.90
14771;DHT22;7477;45.222;5.688;2022-09-23T08:56:55;17.00;99.90
14771;DHT22;7477;45.222;5.688;2022-09-23T09:00:21;16.90;99.90
14771;DHT22;7477;45.222;5.688;2022-09-23T09:03:46;17.00;99.90
14771;DHT22;7477;45.222;5.688;2022-09-23T09:10:34;17.10;99.90
14771;DHT22;7477;45.222;5.688;2022-09-23T09:14:09;17.10;99.90
14771;DHT22;7477;45.222;5.688;2022-09-23T09:21:10;17.10;99.90
14771;DHT22;7477;45.222;5.688;2022-09-23T09:24:34;17.20;99.90
14771;DHT22;7477;45.222;5.688;2022-09-23T09:27:55;17.10;99.90
14771;DHT22;7477;45.222;5.688;2022-09-23T09:31:34;16.80;99.90
14771;DHT22;7477;45.222;5.688;2022-09-23T09:35:00;16.30;99.90
14771;DHT22;7477;45.222;5.688;2022-09-23T09:38:23;16.20;99.90
14771;DHT22;7477;45.222;5.688;2022-09-23T09:41:47;16.00;99.90
14771;DHT22;7477;45.222;5.688;2022-09-23T09:45:28;16.30;99.90
14771;DHT22;7477;45.222;5.688;2022-09-23T09:52:29;16.40;99.90
14771;DHT22;7477;45.222;5.688;2022-09-23T09:56:06;16.60;99.90
14771;DHT22;7477;45.222;5.688;2022-09-23T09:59:27;16.90;99.90
14771;DHT22;7477;45.222;5.688;2022-09-23T10:03:04;16.90;99.90
14771;DHT22;7477;45.222;5.688;2022-09-23T10:06:36;16.70;99.90
14771;DHT22;7477;45.222;5.688;2022-09-23T10:09:56;16.50;99.90
14771;DHT22;7477;45.222;5.688;2022-09-23T10:13:19;16.20;99.90
14771;DHT22;7477;45.222;5.688;2022-09-23T10:16:39;16.30;99.90
14771;DHT22;7477;45.222;5.688;2022-09-23T10:20:05;16.30;99.90
14771;DHT22;7477;45.222;5.688;2022-09-23T10:23:27;16.40;99.60
14771;DHT22;7477;45.222;5.688;2022-09-23T10:26:55;16.40;99.60
14771;DHT22;7477;45.222;5.688;2022-09-23T10:30:24;16.40;99.90
14771;DHT22;7477;45.222;5.688;2022-09-23T10:34:21;16.30;99.90
14771;DHT22;7477;45.222;5.688;2022-09-23T10:41:17;16.30;99.90
14771;DHT22;7477;45.222;5.688;2022-09-23T10:45:14;16.30;99.90
14771;DHT22;7477;45.222;5.688;2022-09-23T10:53:08;16.60;99.90
14771;DHT22;7477;45.222;5.688;2022-09-23T10:56:39;16.70;99.90
14771;DHT22;7477;45.222;5.688;2022-09-23T11:07:11;16.50;99.90
14771;DHT22;7477;45.222;5.688;2022-09-23T11:10:47;16.60;99.90
14771;DHT22;7477;45.222;5.688;2022-09-23T11:14:22;16.50;99.90
14771;DHT22;7477;45.222;5.688;2022-09-23T11:29:05;18.50;99.80
14771;DHT22;7477;45.222;5.688;2022-09-23T11:36:55;18.10;98.10
14771;DHT22;7477;45.222;5.688;2022-09-23T11:43:19;18.40;97.70
14771;DHT22;7477;45.222;5.688;2022-09-23T11:46:45;18.50;97.30
14771;DHT22;7477;45.222;5.688;2022-09-23T11:50:27;18.70;97.00
14771;DHT22;7477;45.222;5.688;2022-09-23T11:53:52;19.00;97.10
14771;DHT22;7477;45.222;5.688;2022-09-23T11:57:29;18.90;97.00
14771;DHT22;7477;45.222;5.688;2022-09-23T12:01:10;19.30;96.80
14771;DHT22;7477;45.222;5.688;2022-09-23T12:04:34;19.30;97.50
14771;DHT22;7477;45.222;5.688;2022-09-23T12:11:36;19.20;97.90
14771;DHT22;7477;45.222;5.688;2022-09-23T12:15:33;19.10;98.00
14771;DHT22;7477;45.222;5.688;2022-09-23T12:26:53;19.80;97.10
14771;DHT22;7477;45.222;5.688;2022-09-23T12:30:20;19.80;98.20
14771;DHT22;7477;45.222;5.688;2022-09-23T12:33:57;19.70;99.00
14771;DHT22;7477;45.222;5.688;2022-09-23T12:37:33;19.90;98.60
14771;DHT22;7477;45.222;5.688;2022-09-23T12:40:55;20.10;98.50
14771;DHT22;7477;45.222;5.688;2022-09-23T12:44:29;20.10;98.80
14771;DHT22;7477;45.222;5.688;2022-09-23T12:47:49;20.10;99.00
14771;DHT22;7477;45.222;5.688;2022-09-23T12:51:17;19.70;99.90
14771;DHT22;7477;45.222;5.688;2022-09-23T12:54:38;19.80;99.70
14771;DHT22;7477;45.222;5.688;2022-09-23T12:57:58;18.90;99.90
14771;DHT22;7477;45.222;5.688;2022-09-23T13:01:19;19.60;99.90
14771;DHT22;7477;45.222;5.688;2022-09-23T13:04:44;20.70;99.50
14771;DHT22;7477;45.222;5.688;2022-09-23T13:08:29;20.30;99.70
14771;DHT22;7477;45.222;5.688;2022-09-23T13:11:50;20.60;99.80
14771;DHT22;7477;45.222;5.688;2022-09-23T13:15:33;20.70;99.70
14771;DHT22;7477;45.222;5.688;2022-09-23T13:22:13;20.60;99.70
14771;DHT22;7477;45.222;5.688;2022-09-23T13:26:03;20.80;99.70
14771;DHT22;7477;45.222;5.688;2022-09-23T13:32:52;21.00;99.40
14771;DHT22;7477;45.222;5.688;2022-09-23T13:36:14;21.00;99.00
14771;DHT22;7477;45.222;5.688;2022-09-23T13:39:34;21.10;98.60
14771;DHT22;7477;45.222;5.688;2022-09-23T13:43:03;20.90;99.00
14771;DHT22;7477;45.222;5.688;2022-09-23T13:46:25;21.10;98.80
14771;DHT22;7477;45.222;5.688;2022-09-23T13:49:46;21.20;99.00
14771;DHT22;7477;45.222;5.688;2022-09-23T13:53:09;21.30;98.60
14771;DHT22;7477;45.222;5.688;2022-09-23T13:56:31;21.30;98.50
14771;DHT22;7477;45.222;5.688;2022-09-23T13:59:52;21.20;98.10
14771;DHT22;7477;45.222;5.688;2022-09-23T14:03:34;21.10;97.90
14771;DHT22;7477;45.222;5.688;2022-09-23T14:06:53;19.50;99.30
14771;DHT22;7477;45.222;5.688;2022-09-23T14:10:18;19.00;99.90
14771;DHT22;7477;45.222;5.688;2022-09-23T14:13:43;18.90;99.90
14771;DHT22;7477;45.222;5.688;2022-09-23T14:17:04;18.80;99.90
14771;DHT22;7477;45.222;5.688;2022-09-23T14:20:24;18.70;99.90
14771;DHT22;7477;45.222;5.688;2022-09-23T14:23:43;18.70;99.90
14771;DHT22;7477;45.222;5.688;2022-09-23T14:27:14;18.70;99.90
14771;DHT22;7477;45.222;5.688;2022-09-23T14:30:34;18.70;99.90
14771;DHT22;7477;45.222;5.688;2022-09-23T14:33:53;18.70;99.90
14771;DHT22;7477;45.222;5.688;2022-09-23T14:41:39;18.70;99.90
14771;DHT22;7477;45.222;5.688;2022-09-23T14:44:59;18.70;99.90
14771;DHT22;7477;45.222;5.688;2022-09-23T14:51:50;18.80;99.90
14771;DHT22;7477;45.222;5.688;2022-09-23T14:55:15;18.70;99.90
14771;DHT22;7477;45.222;5.688;2022-09-23T15:01:59;20.90;99.90
14771;DHT22;7477;45.222;5.688;2022-09-23T15:05:21;20.90;99.90
14771;DHT22;7477;45.222;5.688;2022-09-23T15:08:43;21.00;99.30
14771;DHT22;7477;45.222;5.688;2022-09-23T15:12:12;21.20;99.00
14771;DHT22;7477;45.222;5.688;2022-09-23T15:15:32;21.20;99.10
14771;DHT22;7477;45.222;5.688;2022-09-23T15:18:58;21.30;98.70
14771;DHT22;7477;45.222;5.688;2022-09-23T15:22:18;21.50;98.60
14771;DHT22;7477;45.222;5.688;2022-09-23T15:25:40;21.30;98.20
14771;DHT22;7477;45.222;5.688;2022-09-23T15:29:00;21.20;98.40
14771;DHT22;7477;45.222;5.688;2022-09-23T15:32:20;21.20;98.20
14771;DHT22;7477;45.222;5.688;2022-09-23T15:35:44;21.20;98.40
14771;DHT22;7477;45.222;5.688;2022-09-23T15:39:05;21.30;98.10
14771;DHT22;7477;45.222;5.688;2022-09-23T15:42:26;21.20;98.20
14771;DHT22;7477;45.222;5.688;2022-09-23T15:45:49;21.40;98.00
14771;DHT22;7477;45.222;5.688;2022-09-23T15:49:27;21.40;97.70
14771;DHT22;7477;45.222;5.688;2022-09-23T15:52:47;21.30;97.90
14771;DHT22;7477;45.222;5.688;2022-09-23T15:56:06;21.20;98.00
14771;DHT22;7477;45.222;5.688;2022-09-23T15:59:27;21.10;97.70
14771;DHT22;7477;45.222;5.688;2022-09-23T16:02:47;21.10;97.60
14771;DHT22;7477;45.222;5.688;2022-09-23T16:06:10;21.10;97.20
14771;DHT22;7477;45.222;5.688;2022-09-23T16:09:31;20.90;97.70
14771;DHT22;7477;45.222;5.688;2022-09-23T16:12:55;20.90;97.70
14771;DHT22;7477;45.222;5.688;2022-09-23T16:16:16;20.80;97.70
14771;DHT22;7477;45.222;5.688;2022-09-23T16:19:38;20.80;97.40
14771;DHT22;7477;45.222;5.688;2022-09-23T16:23:02;20.80;97.40
14771;DHT22;7477;45.222;5.688;2022-09-23T16:29:42;20.60;98.10
14771;DHT22;7477;45.222;5.688;2022-09-23T16:33:01;20.50;98.30
14771;DHT22;7477;45.222;5.688;2022-09-23T16:36:26;20.50;98.50
14771;DHT22;7477;45.222;5.688;2022-09-23T16:39:47;20.50;98.30
14771;DHT22;7477;45.222;5.688;2022-09-23T16:43:07;20.40;98.60
14771;DHT22;7477;45.222;5.688;2022-09-23T16:46:27;20.30;98.90
14771;DHT22;7477;45.222;5.688;2022-09-23T16:49:47;20.30;98.80
14771;DHT22;7477;45.222;5.688;2022-09-23T16:53:06;20.30;99.00
14771;DHT22;7477;45.222;5.688;2022-09-23T16:56:27;20.20;99.00
14771;DHT22;7477;45.222;5.688;2022-09-23T16:59:46;20.10;99.40
14771;DHT22;7477;45.222;5.688;2022-09-23T17:03:24;20.10;99.30
14771;DHT22;7477;45.222;5.688;2022-09-23T17:06:59;20.10;99.60
14771;DHT22;7477;45.222;5.688;2022-09-23T17:10:18;20.00;99.60
14771;DHT22;7477;45.222;5.688;2022-09-23T17:13:39;19.90;99.60
14771;DHT22;7477;45.222;5.688;2022-09-23T17:17:00;19.80;99.80
14771;DHT22;7477;45.222;5.688;2022-09-23T17:20:19;19.80;99.90
14771;DHT22;7477;45.222;5.688;2022-09-23T17:23:39;19.70;99.90
14771;DHT22;7477;45.222;5.688;2022-09-23T17:26:58;19.70;99.80
14771;DHT22;7477;45.222;5.688;2022-09-23T17:30:17;19.70;99.90
14771;DHT22;7477;45.222;5.688;2022-09-23T17:33:36;19.70;99.90
14771;DHT22;7477;45.222;5.688;2022-09-23T17:36:56;19.60;99.90
14771;DHT22;7477;45.222;5.688;2022-09-23T17:40:15;19.60;99.90
14771;DHT22;7477;45.222;5.688;2022-09-23T17:43:36;19.50;99.90
14771;DHT22;7477;45.222;5.688;2022-09-23T17:46:56;19.50;99.90
14771;DHT22;7477;45.222;5.688;2022-09-23T17:50:16;19.40;99.90
14771;DHT22;7477;45.222;5.688;2022-09-23T17:53:37;19.40;99.90
14771;DHT22;7477;45.222;5.688;2022-09-23T17:56:58;19.30;99.90
14771;DHT22;7477;45.222;5.688;2022-09-23T18:00:17;19.30;99.90
14771;DHT22;7477;45.222;5.688;2022-09-23T18:03:37;19.30;99.90
14771;DHT22;7477;45.222;5.688;2022-09-23T18:06:56;19.20;99.90
14771;DHT22;7477;45.222;5.688;2022-09-23T18:10:16;19.20;99.90
14771;DHT22;7477;45.222;5.688;2022-09-23T18:13:35;19.20;99.90
14771;DHT22;7477;45.222;5.688;2022-09-23T18:16:54;19.20;99.90
14771;DHT22;7477;45.222;5.688;2022-09-23T18:20:14;19.20;99.90
14771;DHT22;7477;45.222;5.688;2022-09-23T18:23:35;19.10;99.90
14771;DHT22;7477;45.222;5.688;2022-09-23T18:26:55;19.10;99.90
14771;DHT22;7477;45.222;5.688;2022-09-23T18:30:17;19.00;99.90
14771;DHT22;7477;45.222;5.688;2022-09-23T18:33:37;19.00;99.90
14771;DHT22;7477;45.222;5.688;2022-09-23T18:36:56;19.00;99.90
14771;DHT22;7477;45.222;5.688;2022-09-23T18:40:15;18.90;99.90
14771;DHT22;7477;45.222;5.688;2022-09-23T18:43:37;18.90;99.90
14771;DHT22;7477;45.222;5.688;2022-09-23T18:46:56;18.90;99.90
14771;DHT22;7477;45.222;5.688;2022-09-23T18:50:15;18.90;99.90
14771;DHT22;7477;45.222;5.688;2022-09-23T18:53:54;18.80;99.90
14771;DHT22;7477;45.222;5.688;2022-09-23T18:57:15;18.70;99.90
14771;DHT22;7477;45.222;5.688;2022-09-23T19:00:34;18.70;99.90
14771;DHT22;7477;45.222;5.688;2022-09-23T19:03:55;18.60;99.90
14771;DHT22;7477;45.222;5.688;2022-09-23T19:07:14;18.50;99.90
14771;DHT22;7477;45.222;5.688;2022-09-23T19:10:34;18.50;99.90
14771;DHT22;7477;45.222;5.688;2022-09-23T19:13:54;18.60;99.90
14771;DHT22;7477;45.222;5.688;2022-09-23T19:17:13;18.50;99.90
14771;DHT22;7477;45.222;5.688;2022-09-23T19:20:33;18.50;99.90
14771;DHT22;7477;45.222;5.688;2022-09-23T19:23:57;18.40;99.90
14771;DHT22;7477;45.222;5.688;2022-09-23T19:27:21;18.40;99.90
14771;DHT22;7477;45.222;5.688;2022-09-23T19:30:41;18.40;99.90
14771;DHT22;7477;45.222;5.688;2022-09-23T19:34:03;18.40;99.90
14771;DHT22;7477;45.222;5.688;2022-09-23T19:37:23;18.30;99.90
14771;DHT22;7477;45.222;5.688;2022-09-23T19:40:43;18.30;99.90
14771;DHT22;7477;45.222;5.688;2022-09-23T19:44:03;18.30;99.90
14771;DHT22;7477;45.222;5.688;2022-09-23T19:47:25;18.20;99.90
14771;DHT22;7477;45.222;5.688;2022-09-23T19:50:47;18.20;99.90
14771;DHT22;7477;45.222;5.688;2022-09-23T19:54:07;18.20;99.90
14771;DHT22;7477;45.222;5.688;2022-09-23T19:57:26;18.10;99.90
14771;DHT22;7477;45.222;5.688;2022-09-23T20:00:51;18.10;99.90
14771;DHT22;7477;45.222;5.688;2022-09-23T20:04:10;18.10;99.90
14771;DHT22;7477;45.222;5.688;2022-09-23T20:07:29;18.10;99.90
14771;DHT22;7477;45.222;5.688;2022-09-23T20:10:49;18.10;99.90
14771;DHT22;7477;45.222;5.688;2022-09-23T20:14:09;18.00;99.90
14771;DHT22;7477;45.222;5.688;2022-09-23T20:17:28;18.00;99.90
14771;DHT22;7477;45.222;5.688;2022-09-23T20:20:55;18.00;99.90
14771;DHT22;7477;45.222;5.688;2022-09-23T20:24:14;18.00;99.90
14771;DHT22;7477;45.222;5.688;2022-09-23T20:27:33;18.00;99.90
14771;DHT22;7477;45.222;5.688;2022-09-23T20:30:57;18.00;99.90
14771;DHT22;7477;45.222;5.688;2022-09-23T20:34:16;18.00;99.90
14771;DHT22;7477;45.222;5.688;2022-09-23T20:37:36;18.10;99.90
14771;DHT22;7477;45.222;5.688;2022-09-23T20:40:56;18.00;99.90
14771;DHT22;7477;45.222;5.688;2022-09-23T20:44:15;18.00;99.90
14771;DHT22;7477;45.222;5.688;2022-09-23T20:47:34;18.10;99.90
14771;DHT22;7477;45.222;5.688;2022-09-23T20:51:01;18.10;99.90
14771;DHT22;7477;45.222;5.688;2022-09-23T20:54:21;18.10;99.90
14771;DHT22;7477;45.222;5.688;2022-09-23T20:57:40;18.10;99.90
14771;DHT22;7477;45.222;5.688;2022-09-23T21:04:21;17.90;99.90
14771;DHT22;7477;45.222;5.688;2022-09-23T21:07:40;17.80;99.90
14771;DHT22;7477;45.222;5.688;2022-09-23T21:11:02;17.80;99.90
14771;DHT22;7477;45.222;5.688;2022-09-23T21:14:22;17.80;99.90
14771;DHT22;7477;45.222;5.688;2022-09-23T21:17:41;17.90;99.90
14771;DHT22;7477;45.222;5.688;2022-09-23T21:21:01;17.90;99.90
14771;DHT22;7477;45.222;5.688;2022-09-23T21:24:20;17.80;99.90
14771;DHT22;7477;45.222;5.688;2022-09-23T21:27:40;17.80;99.90
14771;DHT22;7477;45.222;5.688;2022-09-23T21:31:01;17.90;99.90
14771;DHT22;7477;45.222;5.688;2022-09-23T21:34:21;18.00;99.90
14771;DHT22;7477;45.222;5.688;2022-09-23T21:37:41;17.90;99.90
14771;DHT22;7477;45.222;5.688;2022-09-23T21:41:03;18.00;99.90
14771;DHT22;7477;45.222;5.688;2022-09-23T21:44:22;17.90;99.90
14771;DHT22;7477;45.222;5.688;2022-09-23T21:47:41;17.90;99.90
14771;DHT22;7477;45.222;5.688;2022-09-23T21:51:04;17.90;99.90
14771;DHT22;7477;45.222;5.688;2022-09-23T21:54:23;17.90;99.90
14771;DHT22;7477;45.222;5.688;2022-09-23T21:57:42;17.80;99.90
14771;DHT22;7477;45.222;5.688;2022-09-23T22:01:10;17.80;99.90
14771;DHT22;7477;45.222;5.688;2022-09-23T22:04:30;17.80;99.90
14771;DHT22;7477;45.222;5.688;2022-09-23T22:07:50;17.80;99.90
14771;DHT22;7477;45.222;5.688;2022-09-23T22:11:11;17.80;99.90
14771;DHT22;7477;45.222;5.688;2022-09-23T22:14:50;17.80;99.90
14771;DHT22;7477;45.222;5.688;2022-09-23T22:18:09;17.80;99.90
14771;DHT22;7477;45.222;5.688;2022-09-23T22:21:30;17.70;99.90
14771;DHT22;7477;45.222;5.688;2022-09-23T22:24:49;17.80;99.90
14771;DHT22;7477;45.222;5.688;2022-09-23T22:28:10;17.80;99.90
14771;DHT22;7477;45.222;5.688;2022-09-23T22:31:48;17.80;99.90
14771;DHT22;7477;45.222;5.688;2022-09-23T22:35:26;17.70;99.90
14771;DHT22;7477;45.222;5.688;2022-09-23T22:38:46;17.70;99.90
14771;DHT22;7477;45.222;5.688;2022-09-23T22:42:09;17.80;99.90
14771;DHT22;7477;45.222;5.688;2022-09-23T22:45:31;17.80;99.90
14771;DHT22;7477;45.222;5.688;2022-09-23T22:48:50;17.90;99.90
14771;DHT22;7477;45.222;5.688;2022-09-23T22:52:11;17.90;99.90
14771;DHT22;7477;45.222;5.688;2022-09-23T22:55:32;17.90;99.90
14771;DHT22;7477;45.222;5.688;2022-09-23T22:58:52;17.80;99.90
14771;DHT22;7477;45.222;5.688;2022-09-23T23:02:16;17.80;99.90
14771;DHT22;7477;45.222;5.688;2022-09-23T23:05:36;17.80;99.90
14771;DHT22;7477;45.222;5.688;2022-09-23T23:08:55;17.80;99.90
14771;DHT22;7477;45.222;5.688;2022-09-23T23:12:18;17.90;99.90
14771;DHT22;7477;45.222;5.688;2022-09-23T23:15:38;17.80;99.90
14771;DHT22;7477;45.222;5.688;2022-09-23T23:18:57;17.80;99.90
14771;DHT22;7477;45.222;5.688;2022-09-23T23:22:16;17.80;99.90
14771;DHT22;7477;45.222;5.688;2022-09-23T23:25:35;17.80;99.90
14771;DHT22;7477;45.222;5.688;2022-09-23T23:28:55;17.80;99.90
14771;DHT22;7477;45.222;5.688;2022-09-23T23:32:15;17.70;99.90
14771;DHT22;7477;45.222;5.688;2022-09-23T23:35:35;17.70;99.90
14771;DHT22;7477;45.222;5.688;2022-09-23T23:38:54;17.60;99.90
14771;DHT22;7477;45.222;5.688;2022-09-23T23:42:13;17.50;99.90
14771;DHT22;7477;45.222;5.688;2022-09-23T23:45:32;17.40;99.90